createdAt,value
2023-04-14T00:08:26.187Z,67.3
2023-04-14T00:23:35.400Z,67.4
2023-04-14T00:38:44.309Z,67.5
2023-04-14T00:53:57.724Z,67.5
2023-04-14T01:09:06.946Z,67.7
2023-04-14T01:24:16.592Z,67.6
2023-04-14T01:39:25.961Z,67.3
2023-04-14T01:54:35.595Z,66.8
2023-04-14T02:09:45.502Z,67.5
2023-04-14T02:24:57.869Z,67.8
2023-04-14T02:40:07.306Z,67.7
2023-04-14T02:55:16.923Z,67.6
2023-04-14T03:10:26.892Z,67.6
2023-04-14T03:25:36.280Z,67.6
2023-04-14T03:40:45.631Z,67.7
2023-04-14T03:55:56.034Z,67.9
2023-04-14T04:11:05.262Z,68.5
2023-04-14T04:26:15.083Z,68.3
2023-04-14T04:41:25.445Z,68.4
2023-04-14T04:56:35.209Z,68.4
2023-04-14T05:11:45.045Z,68.3
2023-04-14T05:27:15.213Z,68.2
2023-04-14T05:42:25.838Z,66.9
2023-04-14T05:57:35.558Z,67.6
2023-04-14T06:12:45.424Z,67.5
2023-04-14T06:27:57.672Z,67.2
2023-04-14T06:43:07.828Z,67.1
2023-04-14T06:58:17.833Z,67
2023-04-14T07:13:28.309Z,67
2023-04-14T07:28:39.463Z,67
2023-04-14T07:43:49.380Z,66.7
2023-04-14T07:59:00.766Z,66.6
2023-04-14T08:14:11.074Z,66.9
2023-04-14T08:29:21.074Z,66.2
2023-04-14T08:44:31.201Z,65.9
2023-04-14T08:59:41.333Z,65.8
2023-04-14T09:14:51.534Z,65.5
2023-04-14T09:30:01.441Z,65.4
2023-04-14T09:45:12.196Z,65.2
2023-04-14T10:00:22.179Z,64.9
2023-04-14T10:15:32.482Z,64.5
2023-04-14T10:30:42.971Z,64.4
2023-04-14T10:45:52.576Z,64.2
2023-04-14T11:01:02.625Z,63.9
2023-04-14T11:16:13.268Z,63.6
2023-04-14T11:31:24.230Z,63.4
2023-04-14T11:46:35.032Z,62.9
2023-04-14T12:01:45.891Z,62.4
2023-04-14T12:16:58.034Z,60.8
2023-04-14T12:32:08.338Z,61.9
2023-04-14T12:47:17.987Z,62.3
2023-04-14T13:02:28.730Z,60.8
2023-04-14T13:17:39.903Z,58.3
2023-04-14T13:32:49.881Z,60.1
2023-04-14T13:47:59.358Z,61.9
2023-04-14T14:03:09.531Z,62.9
2023-04-14T14:18:19.180Z,62.7
2023-04-14T14:33:28.603Z,62.8
2023-04-14T14:48:38.446Z,62.8
2023-04-14T15:03:48.848Z,61.8
2023-04-14T15:19:00.266Z,59.2
2023-04-14T15:34:10.620Z,59.1
2023-04-14T15:49:26.013Z,56.3
2023-04-14T16:04:36.129Z,59
2023-04-14T16:19:44.579Z,61.6
2023-04-14T16:34:53.418Z,62.5
2023-04-14T16:50:03.368Z,62.6
2023-04-14T17:05:13.597Z,62.3
2023-04-14T17:20:23.032Z,62.7
2023-04-14T17:35:32.414Z,63
2023-04-14T17:50:41.968Z,63.4
2023-04-14T18:05:51.348Z,63.9
2023-04-14T18:21:00.676Z,64.3
2023-04-14T18:36:09.996Z,64.6
2023-04-14T18:51:19.733Z,64.8
2023-04-14T19:06:29.652Z,65
2023-04-14T19:21:39.460Z,65.2
2023-04-14T19:36:48.914Z,65.2
2023-04-14T19:51:58.345Z,65.4
2023-04-14T20:07:07.736Z,65.6
2023-04-14T20:22:17.271Z,65.7
2023-04-14T20:37:26.549Z,65.8
2023-04-14T20:52:36.160Z,66
2023-04-14T21:07:45.754Z,66.4
2023-04-14T21:24:05.946Z,66.6
2023-04-14T21:40:26.646Z,67.1
2023-04-14T21:56:47.423Z,67.6
2023-04-14T22:13:10.070Z,68
2023-04-14T22:29:30.230Z,68.4
2023-04-14T22:45:50.730Z,68.7
2023-04-14T23:02:11.508Z,68.7
2023-04-14T23:18:32.272Z,69
2023-04-14T23:34:53.116Z,69.2
2023-04-14T23:51:23.185Z,69.4
